createdAt,value
2023-05-10T00:00:59.978Z,14.77
2023-05-10T00:01:59.986Z,14.78
2023-05-10T00:03:00.006Z,14.77
2023-05-10T00:03:59.955Z,14.75
2023-05-10T00:04:59.895Z,14.75
2023-05-10T00:05:59.967Z,14.77
2023-05-10T00:06:59.883Z,14.81
2023-05-10T00:07:59.877Z,14.80
2023-05-10T00:08:59.873Z,14.80
2023-05-10T00:09:59.822Z,14.77
2023-05-10T00:10:59.832Z,14.77
2023-05-10T00:11:59.855Z,14.77
2023-05-10T00:12:59.854Z,14.77
2023-05-10T00:13:59.809Z,14.77
2023-05-10T00:14:59.775Z,14.77
2023-05-10T00:15:59.771Z,14.73
2023-05-10T00:16:59.793Z,14.72
2023-05-10T00:17:59.842Z,14.72
2023-05-10T00:18:59.766Z,14.72
2023-05-10T00:19:59.738Z,14.73
2023-05-10T00:20:59.717Z,14.70
2023-05-10T00:21:59.694Z,14.73
2023-05-10T00:22:59.734Z,14.78
2023-05-10T00:23:59.673Z,14.81
2023-05-10T00:24:59.685Z,14.84
2023-05-10T00:25:59.645Z,14.84
2023-05-10T00:26:59.669Z,14.80
2023-05-10T00:27:59.648Z,14.77
2023-05-10T00:28:59.644Z,14.70
2023-05-10T00:29:59.634Z,14.65
2023-05-10T00:30:59.602Z,14.64
2023-05-10T00:31:59.652Z,14.64
2023-05-10T00:32:59.632Z,14.62
2023-05-10T00:33:59.566Z,14.57
2023-05-10T00:34:59.597Z,14.54
2023-05-10T00:35:59.564Z,14.50
2023-05-10T00:36:59.526Z,14.42
2023-05-10T00:37:59.498Z,14.36
2023-05-10T00:38:59.507Z,14.29
2023-05-10T00:39:59.513Z,14.22
2023-05-10T00:40:59.475Z,14.21
2023-05-10T00:41:59.469Z,14.20
2023-05-10T00:42:59.464Z,14.18
2023-05-10T00:43:59.453Z,14.21
2023-05-10T00:44:59.503Z,14.21
2023-05-10T00:45:59.448Z,14.18
2023-05-10T00:46:59.413Z,14.17
2023-05-10T00:47:59.407Z,14.10
2023-05-10T00:48:59.408Z,14.07
2023-05-10T00:49:59.363Z,14.04
2023-05-10T00:50:59.371Z,14.04
2023-05-10T00:51:59.348Z,14.03
2023-05-10T00:52:59.357Z,14.02
2023-05-10T00:53:59.330Z,14.02
2023-05-10T00:54:59.327Z,14.02
2023-05-10T00:55:59.345Z,14.02
2023-05-10T00:56:59.295Z,14.03
2023-05-10T00:57:59.284Z,14.03
2023-05-10T00:58:59.295Z,14.06
2023-05-10T00:59:59.255Z,14.14
2023-05-10T01:00:59.332Z,14.17
2023-05-10T01:01:59.259Z,14.22
2023-05-10T01:02:59.366Z,14.29
2023-05-10T01:03:59.220Z,14.32
2023-05-10T01:04:59.278Z,14.37
2023-05-10T01:05:59.184Z,14.40
2023-05-10T01:06:59.192Z,14.42
2023-05-10T01:07:59.179Z,14.43
2023-05-10T01:08:59.161Z,14.45
2023-05-10T01:09:59.202Z,14.45
2023-05-10T01:10:59.115Z,14.46
2023-05-10T01:11:59.161Z,14.43
2023-05-10T01:12:59.181Z,14.43
2023-05-10T01:13:59.091Z,14.43
2023-05-10T01:14:59.078Z,14.40
2023-05-10T01:15:59.138Z,14.40
2023-05-10T01:16:59.113Z,14.37
2023-05-10T01:17:59.092Z,14.35
2023-05-10T01:18:59.028Z,14.35
2023-05-10T01:19:59.025Z,14.37
2023-05-10T01:20:59.003Z,14.33
2023-05-10T01:21:59.045Z,14.29
2023-05-10T01:22:59.052Z,14.29
2023-05-10T01:23:58.979Z,14.29
2023-05-10T01:24:58.953Z,14.27
2023-05-10T01:25:58.935Z,14.25
2023-05-10T01:26:58.936Z,14.24
2023-05-10T01:27:58.940Z,14.27
2023-05-10T01:28:58.975Z,14.27
2023-05-10T01:30:14.126Z,14.27
2023-05-10T01:30:59.930Z,14.28
2023-05-10T01:31:58.892Z,14.28
2023-05-10T01:32:58.925Z,14.27
2023-05-10T01:33:58.900Z,14.28
2023-05-10T01:34:58.865Z,14.32
2023-05-10T01:35:58.879Z,14.29
2023-05-10T01:36:58.839Z,14.35
2023-05-10T01:37:58.842Z,14.42
2023-05-10T01:38:58.855Z,14.50
2023-05-10T01:39:58.794Z,14.51
2023-05-10T01:40:58.772Z,14.51
2023-05-10T01:41:58.785Z,14.47
2023-05-10T01:42:58.753Z,14.51
2023-05-10T01:43:58.749Z,14.51
2023-05-10T01:44:58.744Z,14.52
2023-05-10T01:45:58.758Z,14.54
2023-05-10T01:46:58.849Z,14.58
2023-05-10T01:47:58.729Z,14.58
2023-05-10T01:48:58.711Z,14.58
2023-05-10T01:49:58.681Z,14.58
2023-05-10T01:50:58.661Z,14.60
2023-05-10T01:51:58.626Z,14.58
2023-05-10T01:52:58.654Z,14.58
2023-05-10T01:53:58.648Z,14.58
2023-05-10T01:54:58.614Z,14.58
2023-05-10T01:55:58.612Z,14.55
2023-05-10T01:56:58.585Z,14.55
2023-05-10T01:57:58.602Z,14.58
2023-05-10T01:58:58.573Z,14.62
2023-05-10T01:59:58.572Z,14.68
2023-05-10T02:00:58.555Z,14.70
2023-05-10T02:01:58.563Z,14.70
2023-05-10T02:02:58.591Z,14.72
2023-05-10T02:03:58.556Z,14.73
2023-05-10T02:04:58.521Z,14.75
2023-05-10T02:05:58.469Z,14.75
2023-05-10T02:06:58.481Z,14.75
2023-05-10T02:07:58.485Z,14.80
2023-05-10T02:08:58.444Z,14.84
2023-05-10T02:09:58.448Z,14.89
2023-05-10T02:10:58.757Z,14.89
2023-05-10T02:11:58.412Z,14.89
2023-05-10T02:12:58.437Z,14.92
2023-05-10T02:13:58.395Z,14.92
2023-05-10T02:14:58.401Z,14.94
2023-05-10T02:15:58.403Z,14.95
2023-05-10T02:16:58.392Z,14.96
2023-05-10T02:17:58.419Z,14.96
2023-05-10T02:18:58.326Z,14.96
2023-05-10T02:19:58.333Z,14.95
2023-05-10T02:20:58.324Z,14.94
2023-05-10T02:21:58.309Z,14.91
2023-05-10T02:22:58.333Z,14.91
2023-05-10T02:23:58.295Z,14.95
2023-05-10T02:24:58.250Z,14.94
2023-05-10T02:25:58.242Z,14.94
2023-05-10T02:26:58.236Z,14.95
2023-05-10T02:27:58.280Z,14.94
2023-05-10T02:28:58.227Z,14.92
2023-05-10T02:29:58.230Z,14.91
2023-05-10T02:30:58.190Z,14.88
2023-05-10T02:31:58.288Z,14.89
2023-05-10T02:32:58.214Z,14.88
2023-05-10T02:33:58.183Z,14.88
2023-05-10T02:34:58.195Z,14.88
2023-05-10T02:35:58.133Z,14.91
2023-05-10T02:36:58.122Z,14.91
2023-05-10T02:37:58.119Z,14.92
2023-05-10T02:38:58.167Z,14.92
2023-05-10T02:39:58.100Z,14.94
2023-05-10T02:40:58.080Z,14.94
2023-05-10T02:41:58.077Z,14.95
2023-05-10T02:42:58.041Z,14.94
2023-05-10T02:43:58.049Z,14.92
2023-05-10T02:44:58.087Z,14.92
2023-05-10T02:45:58.081Z,14.94
2023-05-10T02:46:58.023Z,14.96
2023-05-10T02:47:58.048Z,14.96
2023-05-10T02:48:57.982Z,14.95
2023-05-10T02:49:58.003Z,14.98
2023-05-10T02:50:57.996Z,15.01
2023-05-10T02:51:57.949Z,15.01
2023-05-10T02:52:57.968Z,15.03
2023-05-10T02:53:57.912Z,15.06
2023-05-10T02:54:57.937Z,15.03
2023-05-10T02:55:57.926Z,15.06
2023-05-10T02:56:57.879Z,15.06
2023-05-10T02:57:57.908Z,15.06
2023-05-10T02:58:57.863Z,15.09
2023-05-10T02:59:57.881Z,15.07
2023-05-10T03:00:57.898Z,15.07
2023-05-10T03:01:57.923Z,15.07
2023-05-10T03:02:57.824Z,15.07
2023-05-10T03:03:57.804Z,15.07
2023-05-10T03:04:57.944Z,15.09
2023-05-10T03:05:57.799Z,15.07
2023-05-10T03:06:57.813Z,15.03
2023-05-10T03:07:57.783Z,15.01
2023-05-10T03:08:57.768Z,15.01
2023-05-10T03:09:57.751Z,15.01
2023-05-10T03:10:57.738Z,15.01
2023-05-10T03:11:57.723Z,15.01
2023-05-10T03:12:57.804Z,14.98
2023-05-10T03:13:57.693Z,14.98
2023-05-10T03:14:57.692Z,14.95
2023-05-10T03:15:57.774Z,14.95
2023-05-10T03:16:57.658Z,14.94
2023-05-10T03:17:57.668Z,14.94
2023-05-10T03:18:57.661Z,14.92
2023-05-10T03:19:57.616Z,14.91
2023-05-10T03:20:57.621Z,14.92
2023-05-10T03:21:57.679Z,14.91
2023-05-10T03:22:57.598Z,14.92
2023-05-10T03:23:57.609Z,14.92
2023-05-10T03:24:57.608Z,14.92
2023-05-10T03:25:57.560Z,14.89
2023-05-10T03:26:57.561Z,14.88
2023-05-10T03:27:57.564Z,14.84
2023-05-10T03:28:57.543Z,14.83
2023-05-10T03:29:57.514Z,14.84
2023-05-10T03:30:57.702Z,14.86
2023-05-10T03:31:57.552Z,14.86
2023-05-10T03:32:57.564Z,14.86
2023-05-10T03:33:57.473Z,14.84
2023-05-10T03:34:57.445Z,14.84
2023-05-10T03:35:57.472Z,14.86
2023-05-10T03:36:57.463Z,14.88
2023-05-10T03:37:57.440Z,14.89
2023-05-10T03:38:57.425Z,14.94
2023-05-10T03:39:57.417Z,14.94
2023-05-10T03:40:57.368Z,14.94
2023-05-10T03:41:57.394Z,14.94
2023-05-10T03:42:57.365Z,14.96
2023-05-10T03:43:57.369Z,14.96
2023-05-10T03:44:57.337Z,14.95
2023-05-10T03:45:57.315Z,14.92
2023-05-10T03:46:57.455Z,14.84
2023-05-10T03:47:57.356Z,14.81
2023-05-10T03:48:57.293Z,14.75
2023-05-10T03:49:57.309Z,14.69
2023-05-10T03:50:57.285Z,14.68
2023-05-10T03:51:57.309Z,14.65
2023-05-10T03:52:57.262Z,14.69
2023-05-10T03:53:57.244Z,14.70
2023-05-10T03:54:57.275Z,14.72
2023-05-10T03:55:57.207Z,14.75
2023-05-10T03:56:57.185Z,14.77
2023-05-10T03:57:57.254Z,14.81
2023-05-10T03:58:57.190Z,14.86
2023-05-10T03:59:57.162Z,14.89
2023-05-10T04:00:57.162Z,14.94
2023-05-10T04:01:57.215Z,14.94
2023-05-10T04:02:57.308Z,14.96
2023-05-10T04:03:57.242Z,14.95
2023-05-10T04:04:57.094Z,14.96
2023-05-10T04:05:57.124Z,14.98
2023-05-10T04:06:57.084Z,14.96
2023-05-10T04:07:57.114Z,14.98
2023-05-10T04:08:57.048Z,14.96
2023-05-10T04:09:57.054Z,14.95
2023-05-10T04:10:57.018Z,14.95
2023-05-10T04:11:57.029Z,14.96
2023-05-10T04:12:57.081Z,14.98
2023-05-10T04:13:56.998Z,14.95
2023-05-10T04:14:56.993Z,14.96
2023-05-10T04:15:56.996Z,14.95
2023-05-10T04:16:57.036Z,14.99
2023-05-10T04:17:56.969Z,14.99
2023-05-10T04:18:56.980Z,15.02
2023-05-10T04:19:56.938Z,15.03
2023-05-10T04:20:56.938Z,15.09
2023-05-10T04:21:56.905Z,15.10
2023-05-10T04:22:56.902Z,15.11
2023-05-10T04:23:56.894Z,15.14
2023-05-10T04:24:56.910Z,15.16
2023-05-10T04:25:56.867Z,15.16
2023-05-10T04:26:57.874Z,15.17
2023-05-10T04:27:56.843Z,15.17
2023-05-10T04:28:56.879Z,15.19
2023-05-10T04:29:56.822Z,15.23
2023-05-10T04:30:56.865Z,15.27
2023-05-10T04:31:56.790Z,15.29
2023-05-10T04:32:56.818Z,15.32
2023-05-10T04:33:56.828Z,15.29
2023-05-10T04:34:56.761Z,15.32
2023-05-10T04:35:56.782Z,15.29
2023-05-10T04:36:56.725Z,15.28
2023-05-10T04:37:56.726Z,15.25
2023-05-10T04:38:56.769Z,15.28
2023-05-10T04:39:56.692Z,15.29
2023-05-10T04:40:56.721Z,15.28
2023-05-10T04:41:56.696Z,15.28
2023-05-10T04:42:56.673Z,15.29
2023-05-10T04:43:56.698Z,15.29
2023-05-10T04:44:56.630Z,15.31
2023-05-10T04:45:56.651Z,15.25
2023-05-10T04:46:56.611Z,15.25
2023-05-10T04:47:56.639Z,15.21
2023-05-10T04:48:56.613Z,15.23
2023-05-10T04:49:56.609Z,15.21
2023-05-10T04:50:56.574Z,15.25
2023-05-10T04:51:56.574Z,15.25
2023-05-10T04:52:56.550Z,15.23
2023-05-10T04:54:05.273Z,15.28
2023-05-10T04:54:57.584Z,15.28
2023-05-10T04:55:56.513Z,15.29
2023-05-10T04:56:56.509Z,15.31
2023-05-10T04:57:56.476Z,15.31
2023-05-10T04:58:56.486Z,15.32
2023-05-10T04:59:56.481Z,15.35
2023-05-10T05:00:56.483Z,15.35
2023-05-10T05:01:56.480Z,15.35
2023-05-10T05:02:56.509Z,15.34
2023-05-10T05:03:56.559Z,15.29
2023-05-10T05:04:56.428Z,15.29
2023-05-10T05:05:56.434Z,15.25
2023-05-10T05:06:56.386Z,15.20
2023-05-10T05:07:56.376Z,15.21
2023-05-10T05:08:56.378Z,15.27
2023-05-10T05:09:56.364Z,15.29
2023-05-10T05:10:56.330Z,15.31
2023-05-10T05:11:56.349Z,15.34
2023-05-10T05:12:56.329Z,15.36
2023-05-10T05:13:56.311Z,15.43
2023-05-10T05:14:56.275Z,15.46
2023-05-10T05:15:56.328Z,15.49
2023-05-10T05:16:56.298Z,15.50
2023-05-10T05:17:56.277Z,15.46
2023-05-10T05:18:56.233Z,15.38
2023-05-10T05:19:56.248Z,15.31
2023-05-10T05:20:56.215Z,15.31
2023-05-10T05:21:56.266Z,15.31
2023-05-10T05:22:56.201Z,15.35
2023-05-10T05:23:56.189Z,15.39
2023-05-10T05:24:56.175Z,15.41
2023-05-10T05:25:56.146Z,15.44
2023-05-10T05:26:56.154Z,15.44
2023-05-10T05:27:56.194Z,15.44
2023-05-10T05:28:56.122Z,15.43
2023-05-10T05:29:56.140Z,15.44
2023-05-10T05:30:56.140Z,15.50
2023-05-10T05:31:56.117Z,15.54
2023-05-10T05:32:56.203Z,15.59
2023-05-10T05:33:56.061Z,15.64
2023-05-10T05:34:56.098Z,15.62
2023-05-10T05:35:56.038Z,15.65
2023-05-10T05:36:56.089Z,15.69
2023-05-10T05:37:56.034Z,15.72
2023-05-10T05:38:56.026Z,15.74
2023-05-10T05:39:56.057Z,15.78
2023-05-10T05:40:55.996Z,15.83
2023-05-10T05:41:56.005Z,15.90
2023-05-10T05:42:55.988Z,15.93
2023-05-10T05:43:55.975Z,16.01
2023-05-10T05:44:55.974Z,16.02
2023-05-10T05:45:56.014Z,16.05
2023-05-10T05:46:55.937Z,16.07
2023-05-10T05:47:56.050Z,16.07
2023-05-10T05:48:55.896Z,16.04
2023-05-10T05:49:55.892Z,16.05
2023-05-10T05:50:55.866Z,16.04
2023-05-10T05:51:56.928Z,16.02
2023-05-10T05:52:55.871Z,16.02
2023-05-10T05:53:55.825Z,16.04
2023-05-10T05:54:55.996Z,15.93
2023-05-10T05:55:55.847Z,15.93
2023-05-10T05:56:55.836Z,15.83
2023-05-10T05:57:55.794Z,15.87
2023-05-10T05:58:55.773Z,15.96
2023-05-10T05:59:55.761Z,16.02
2023-05-10T06:00:55.770Z,16.08
2023-05-10T06:01:55.872Z,16.21
2023-05-10T06:02:55.842Z,16.28
2023-05-10T06:03:55.852Z,16.30
2023-05-10T06:04:55.704Z,16.28
2023-05-10T06:05:55.694Z,16.14
2023-05-10T06:06:55.765Z,16.11
2023-05-10T06:07:55.676Z,16.11
2023-05-10T06:08:55.676Z,16.21
2023-05-10T06:09:55.679Z,16.28
2023-05-10T06:10:55.633Z,16.34
2023-05-10T06:11:55.636Z,16.38
2023-05-10T06:12:55.719Z,16.42
2023-05-10T06:13:55.612Z,16.45
2023-05-10T06:14:55.602Z,16.52
2023-05-10T06:15:55.582Z,16.60
2023-05-10T06:16:55.791Z,16.56
2023-05-10T06:17:55.606Z,16.58
2023-05-10T06:18:55.561Z,16.64
2023-05-10T06:19:55.543Z,16.70
2023-05-10T06:20:55.551Z,16.75
2023-05-10T06:21:55.524Z,16.79
2023-05-10T06:22:55.548Z,16.82
2023-05-10T06:23:55.506Z,16.73
2023-05-10T06:24:55.487Z,16.70
2023-05-10T06:25:55.494Z,16.66
2023-05-10T06:26:55.459Z,16.64
2023-05-10T06:27:55.465Z,16.63
2023-05-10T06:28:55.468Z,16.64
2023-05-10T06:30:02.111Z,16.67
2023-05-10T06:30:56.411Z,16.68
2023-05-10T06:31:55.573Z,16.67
2023-05-10T06:32:55.481Z,16.67
2023-05-10T06:33:56.766Z,16.63
2023-05-10T06:34:55.410Z,16.64
2023-05-10T06:35:55.358Z,16.58
2023-05-10T06:36:55.351Z,16.48
2023-05-10T06:37:55.326Z,16.46
2023-05-10T06:38:55.364Z,16.48
2023-05-10T06:39:55.326Z,16.48
2023-05-10T06:40:55.293Z,16.49
2023-05-10T06:41:55.275Z,16.53
2023-05-10T06:42:55.275Z,16.53
2023-05-10T06:43:55.268Z,16.52
2023-05-10T06:44:55.295Z,16.34
2023-05-10T06:45:55.260Z,16.25
2023-05-10T06:46:55.257Z,16.21
2023-05-10T06:47:55.269Z,16.11
2023-05-10T06:48:55.225Z,16.07
2023-05-10T06:49:55.177Z,16.00
2023-05-10T06:50:55.222Z,15.94
2023-05-10T06:51:55.167Z,15.94
2023-05-10T06:52:55.163Z,15.93
2023-05-10T06:53:55.147Z,15.92
2023-05-10T06:54:55.187Z,15.89
2023-05-10T06:55:55.167Z,15.92
2023-05-10T06:56:55.156Z,15.96
2023-05-10T06:57:55.121Z,15.87
2023-05-10T06:58:55.138Z,15.80
2023-05-10T06:59:55.076Z,15.80
2023-05-10T07:00:55.162Z,15.78
2023-05-10T07:01:55.194Z,15.75
2023-05-10T07:02:55.099Z,15.71
2023-05-10T07:03:55.028Z,15.69
2023-05-10T07:04:55.150Z,15.74
2023-05-10T07:05:55.005Z,15.76
2023-05-10T07:06:55.015Z,15.78
2023-05-10T07:07:54.992Z,15.78
2023-05-10T07:08:55.031Z,15.84
2023-05-10T07:09:54.965Z,15.90
2023-05-10T07:10:54.955Z,15.96
2023-05-10T07:11:54.926Z,16.04
2023-05-10T07:12:55.002Z,16.02
2023-05-10T07:13:54.930Z,16.00
2023-05-10T07:14:54.905Z,16.02
2023-05-10T07:15:54.945Z,16.02
2023-05-10T07:16:54.872Z,16.01
2023-05-10T07:17:55.025Z,16.01
2023-05-10T07:18:54.849Z,16.08
2023-05-10T07:19:54.866Z,16.07
2023-05-10T07:20:54.883Z,15.90
2023-05-10T07:21:54.827Z,15.97
2023-05-10T07:22:54.869Z,15.93
2023-05-10T07:23:54.800Z,15.97
2023-05-10T07:24:54.796Z,16.01
2023-05-10T07:25:54.861Z,16.01
2023-05-10T07:26:54.766Z,16.04
2023-05-10T07:27:54.795Z,15.97
2023-05-10T07:28:54.746Z,15.94
2023-05-10T07:29:54.731Z,16.01
2023-05-10T07:30:54.800Z,16.00
2023-05-10T07:31:56.493Z,16.09
2023-05-10T07:32:54.851Z,16.21
2023-05-10T07:33:54.685Z,16.20
2023-05-10T07:34:54.713Z,16.27
2023-05-10T07:35:54.663Z,16.31
2023-05-10T07:36:54.676Z,16.33
2023-05-10T07:37:54.675Z,16.41
2023-05-10T07:38:54.657Z,16.41
2023-05-10T07:39:54.612Z,16.39
2023-05-10T07:40:54.631Z,16.46
2023-05-10T07:41:54.584Z,16.56
2023-05-10T07:42:54.576Z,16.61
2023-05-10T07:43:54.624Z,16.68
2023-05-10T07:44:54.557Z,16.66
2023-05-10T07:45:56.262Z,16.67
2023-05-10T07:46:54.551Z,16.66
2023-05-10T07:47:54.576Z,16.56
2023-05-10T07:48:54.579Z,16.57
2023-05-10T07:49:54.496Z,16.56
2023-05-10T07:50:54.521Z,16.53
2023-05-10T07:51:54.500Z,16.34
2023-05-10T07:52:54.470Z,16.24
2023-05-10T07:53:54.459Z,16.15
2023-05-10T07:54:54.471Z,16.25
2023-05-10T07:55:54.495Z,16.34
2023-05-10T07:56:54.460Z,16.39
2023-05-10T07:57:54.414Z,16.46
2023-05-10T07:58:54.412Z,16.46
2023-05-10T07:59:54.408Z,16.46
2023-05-10T08:00:54.394Z,16.52
2023-05-10T08:01:54.397Z,16.63
2023-05-10T08:02:54.545Z,16.75
2023-05-10T08:03:54.631Z,16.73
2023-05-10T08:04:54.390Z,16.81
2023-05-10T08:05:54.316Z,16.86
2023-05-10T08:06:54.305Z,16.97
2023-05-10T08:07:54.304Z,17.07
2023-05-10T08:08:54.291Z,17.15
2023-05-10T08:09:54.290Z,17.14
2023-05-10T08:10:54.258Z,17.12
2023-05-10T08:11:54.265Z,17.07
2023-05-10T08:12:54.237Z,17.16
2023-05-10T08:13:54.237Z,16.98
2023-05-10T08:14:54.221Z,16.93
2023-05-10T08:15:54.283Z,17.04
2023-05-10T08:16:54.199Z,17.19
2023-05-10T08:17:54.209Z,17.34
2023-05-10T08:18:54.174Z,17.43
2023-05-10T08:19:54.161Z,17.46
2023-05-10T08:20:54.149Z,17.34
2023-05-10T08:21:54.174Z,17.26
2023-05-10T08:22:54.121Z,17.16
2023-05-10T08:23:54.145Z,17.19
2023-05-10T08:24:54.079Z,17.31
2023-05-10T08:25:54.075Z,17.40
2023-05-10T08:26:54.112Z,17.46
2023-05-10T08:27:54.050Z,17.48
2023-05-10T08:28:54.061Z,17.48
2023-05-10T08:29:54.020Z,17.16
2023-05-10T08:30:54.063Z,17.01
2023-05-10T08:31:54.070Z,16.93
2023-05-10T08:32:54.025Z,17.03
2023-05-10T08:33:53.992Z,17.14
2023-05-10T08:34:54.004Z,17.23
2023-05-10T08:35:53.975Z,17.23
2023-05-10T08:36:53.959Z,17.22
2023-05-10T08:37:54.006Z,17.18
2023-05-10T08:38:53.985Z,17.16
2023-05-10T08:39:53.920Z,17.18
2023-05-10T08:40:53.922Z,17.14
2023-05-10T08:41:53.894Z,17.25
2023-05-10T08:42:53.878Z,17.33
2023-05-10T08:43:53.910Z,17.40
2023-05-10T08:44:53.906Z,17.44
2023-05-10T08:45:53.914Z,17.44
2023-05-10T08:46:53.891Z,17.52
2023-05-10T08:47:53.904Z,17.49
2023-05-10T08:48:53.856Z,17.40
2023-05-10T08:49:53.821Z,17.37
2023-05-10T08:50:53.837Z,17.26
2023-05-10T08:51:53.803Z,17.31
2023-05-10T08:52:53.758Z,17.21
2023-05-10T08:53:53.781Z,17.18
2023-05-10T08:54:53.798Z,17.28
2023-05-10T08:55:53.727Z,17.30
2023-05-10T08:56:53.724Z,17.38
2023-05-10T08:57:53.957Z,17.56
2023-05-10T08:58:53.702Z,17.70
2023-05-10T08:59:53.798Z,17.82
2023-05-10T09:00:53.791Z,17.96
2023-05-10T09:01:53.695Z,18.02
2023-05-10T09:02:53.712Z,18.03
2023-05-10T09:03:53.696Z,18.07
2023-05-10T09:04:53.790Z,18.17
2023-05-10T09:05:53.643Z,18.08
2023-05-10T09:06:53.616Z,17.92
2023-05-10T09:07:53.596Z,17.82
2023-05-10T09:08:53.657Z,17.79
2023-05-10T09:09:53.573Z,17.77
2023-05-10T09:10:53.564Z,17.71
2023-05-10T09:11:53.557Z,17.79
2023-05-10T09:12:53.549Z,17.75
2023-05-10T09:13:53.601Z,17.90
2023-05-10T09:14:53.520Z,18.02
2023-05-10T09:15:53.485Z,18.21
2023-05-10T09:16:53.531Z,18.32
2023-05-10T09:17:53.534Z,18.41
2023-05-10T09:18:53.491Z,18.47
2023-05-10T09:19:53.503Z,18.47
2023-05-10T09:20:53.458Z,18.63
2023-05-10T09:21:53.469Z,18.42
2023-05-10T09:22:53.432Z,18.18
2023-05-10T09:23:53.426Z,18.20
2023-05-10T09:24:53.404Z,18.35
2023-05-10T09:25:53.458Z,18.20
2023-05-10T09:26:53.425Z,18.32
2023-05-10T09:27:53.405Z,18.41
2023-05-10T09:28:53.351Z,18.41
2023-05-10T09:29:53.349Z,18.45
2023-05-10T09:30:53.367Z,18.60
2023-05-10T09:31:53.413Z,18.62
2023-05-10T09:32:53.340Z,18.67
2023-05-10T09:33:53.319Z,18.72
2023-05-10T09:34:53.319Z,18.72
2023-05-10T09:35:53.299Z,18.70
2023-05-10T09:36:53.266Z,18.51
2023-05-10T09:37:53.273Z,18.37
2023-05-10T09:38:53.225Z,18.20
2023-05-10T09:39:53.290Z,18.18
2023-05-10T09:40:53.221Z,18.25
2023-05-10T09:41:53.198Z,18.23
2023-05-10T09:42:53.233Z,18.11
2023-05-10T09:43:53.173Z,18.17
2023-05-10T09:44:53.180Z,18.20
2023-05-10T09:45:53.223Z,18.18
2023-05-10T09:46:53.169Z,18.27
2023-05-10T09:47:53.211Z,18.26
2023-05-10T09:48:53.361Z,18.18
2023-05-10T09:49:53.138Z,18.33
2023-05-10T09:50:53.106Z,18.45
2023-05-10T09:51:53.095Z,18.55
2023-05-10T09:52:53.118Z,18.69
2023-05-10T09:53:53.122Z,18.78
2023-05-10T09:54:53.066Z,18.84
2023-05-10T09:55:53.039Z,19.00
2023-05-10T09:56:53.059Z,19.18
2023-05-10T09:57:53.031Z,19.18
2023-05-10T09:58:53.073Z,19.11
2023-05-10T09:59:53.008Z,19.11
2023-05-10T10:00:52.992Z,18.94
2023-05-10T10:01:52.994Z,19.04
2023-05-10T10:02:53.004Z,19.26
2023-05-10T10:03:52.967Z,19.47
2023-05-10T10:04:53.006Z,19.55
2023-05-10T10:05:52.963Z,19.62
2023-05-10T10:06:52.967Z,19.58
2023-05-10T10:07:52.899Z,19.56
2023-05-10T10:08:54.932Z,19.55
2023-05-10T10:09:52.902Z,19.55
2023-05-10T10:10:52.900Z,19.55
2023-05-10T10:11:53.172Z,19.44
2023-05-10T10:12:52.851Z,19.43
2023-05-10T10:13:52.884Z,19.51
2023-05-10T10:14:52.950Z,19.65
2023-05-10T10:15:52.876Z,19.69
2023-05-10T10:17:06.383Z,19.69
2023-05-10T10:17:53.870Z,19.77
2023-05-10T10:18:52.884Z,19.77
2023-05-10T10:19:52.768Z,19.71
2023-05-10T10:20:52.801Z,19.80
2023-05-10T10:21:52.772Z,19.69
2023-05-10T10:22:52.906Z,19.47
2023-05-10T10:23:52.716Z,19.41
2023-05-10T10:24:52.951Z,19.44
2023-05-10T10:25:52.692Z,19.36
2023-05-10T10:26:52.756Z,19.36
2023-05-10T10:27:52.749Z,19.33
2023-05-10T10:28:52.702Z,19.33
2023-05-10T10:29:52.672Z,19.25
2023-05-10T10:30:52.661Z,19.02
2023-05-10T10:31:52.739Z,18.75
2023-05-10T10:32:52.696Z,18.67
2023-05-10T10:33:52.652Z,18.44
2023-05-10T10:34:52.652Z,18.29
2023-05-10T10:35:52.674Z,18.18
2023-05-10T10:36:52.583Z,18.18
2023-05-10T10:37:52.565Z,18.26
2023-05-10T10:38:52.585Z,18.32
2023-05-10T10:39:52.536Z,18.42
2023-05-10T10:40:52.593Z,18.44
2023-05-10T10:41:52.529Z,18.44
2023-05-10T10:42:52.520Z,18.47
2023-05-10T10:43:52.499Z,18.41
2023-05-10T10:44:52.488Z,18.23
2023-05-10T10:45:52.536Z,18.23
2023-05-10T10:46:52.495Z,18.25
2023-05-10T10:47:52.480Z,18.30
2023-05-10T10:48:52.446Z,18.32
2023-05-10T10:49:52.452Z,18.32
2023-05-10T10:50:52.445Z,18.27
2023-05-10T10:51:52.436Z,18.20
2023-05-10T10:52:52.414Z,18.11
2023-05-10T10:53:52.380Z,18.05
2023-05-10T10:54:52.622Z,17.95
2023-05-10T10:55:52.374Z,17.95
2023-05-10T10:56:52.383Z,17.92
2023-05-10T10:57:52.351Z,17.75
2023-05-10T10:58:52.324Z,17.58
2023-05-10T10:59:52.308Z,17.44
2023-05-10T11:00:52.360Z,17.40
2023-05-10T11:01:52.309Z,17.36
2023-05-10T11:02:52.359Z,17.34
2023-05-10T11:03:52.367Z,17.33
2023-05-10T11:04:52.261Z,17.34
2023-05-10T11:05:52.291Z,17.36
2023-05-10T11:06:52.474Z,17.40
2023-05-10T11:07:52.224Z,17.41
2023-05-10T11:08:52.203Z,17.49
2023-05-10T11:09:52.229Z,17.54
2023-05-10T11:10:52.201Z,17.52
2023-05-10T11:11:52.231Z,17.56
2023-05-10T11:12:52.195Z,17.55
2023-05-10T11:13:52.169Z,17.62
2023-05-10T11:14:52.174Z,17.64
2023-05-10T11:15:52.121Z,17.64
2023-05-10T11:16:52.190Z,17.74
2023-05-10T11:17:52.157Z,17.79
2023-05-10T11:18:52.111Z,17.84
2023-05-10T11:19:52.086Z,17.97
2023-05-10T11:20:52.106Z,18.03
2023-05-10T11:21:52.126Z,18.07
2023-05-10T11:22:52.061Z,18.11
2023-05-10T11:23:52.051Z,18.14
2023-05-10T11:24:52.021Z,18.10
2023-05-10T11:25:52.042Z,18.05
2023-05-10T11:26:51.999Z,17.99
2023-05-10T11:27:52.026Z,17.90
2023-05-10T11:28:51.967Z,17.79
2023-05-10T11:29:51.991Z,17.70
2023-05-10T11:30:53.064Z,17.54
2023-05-10T11:31:51.963Z,17.46
2023-05-10T11:32:51.979Z,17.38
2023-05-10T11:33:51.914Z,17.26
2023-05-10T11:34:51.913Z,17.19
2023-05-10T11:35:51.936Z,17.15
2023-05-10T11:36:51.880Z,17.07
2023-05-10T11:37:51.889Z,17.07
2023-05-10T11:38:51.898Z,17.03
2023-05-10T11:39:51.872Z,17.00
2023-05-10T11:40:51.832Z,16.98
2023-05-10T11:41:51.879Z,16.96
2023-05-10T11:42:51.822Z,16.94
2023-05-10T11:43:51.844Z,16.91
2023-05-10T11:44:51.818Z,16.93
2023-05-10T11:45:51.861Z,16.88
2023-05-10T11:46:51.860Z,16.86
2023-05-10T11:47:51.765Z,16.89
2023-05-10T11:48:51.801Z,16.91
2023-05-10T11:49:51.802Z,16.93
2023-05-10T11:50:51.726Z,16.94
2023-05-10T11:51:51.735Z,16.97
2023-05-10T11:52:51.706Z,16.94
2023-05-10T11:53:51.705Z,16.97
2023-05-10T11:54:51.707Z,17.01
2023-05-10T11:55:51.711Z,17.04
2023-05-10T11:56:51.651Z,17.07
2023-05-10T11:57:51.649Z,17.12
2023-05-10T11:58:51.687Z,17.15
2023-05-10T11:59:51.634Z,17.16
2023-05-10T12:00:51.603Z,17.16
2023-05-10T12:01:51.608Z,17.19
2023-05-10T12:02:51.670Z,17.25
2023-05-10T12:03:51.720Z,17.30
2023-05-10T12:04:51.611Z,17.26
2023-05-10T12:05:51.550Z,17.31
2023-05-10T12:06:51.603Z,17.37
2023-05-10T12:07:51.521Z,17.40
2023-05-10T12:08:51.524Z,17.43
2023-05-10T12:09:51.532Z,17.44
2023-05-10T12:10:51.487Z,17.44
2023-05-10T12:11:51.489Z,17.46
2023-05-10T12:12:51.508Z,17.49
2023-05-10T12:13:51.689Z,17.52
2023-05-10T12:14:51.506Z,17.52
2023-05-10T12:15:51.443Z,17.55
2023-05-10T12:16:51.534Z,17.58
2023-05-10T12:17:51.492Z,17.58
2023-05-10T12:18:51.436Z,17.63
2023-05-10T12:19:51.396Z,17.66
2023-05-10T12:20:51.413Z,17.68
2023-05-10T12:21:51.363Z,17.68
2023-05-10T12:22:51.380Z,17.70
2023-05-10T12:23:51.392Z,17.71
2023-05-10T12:24:51.340Z,17.71
2023-05-10T12:25:51.341Z,17.72
2023-05-10T12:26:51.300Z,17.75
2023-05-10T12:27:51.309Z,17.77
2023-05-10T12:28:51.303Z,17.78
2023-05-10T12:29:51.311Z,17.82
2023-05-10T12:30:51.292Z,17.84
2023-05-10T12:31:51.313Z,17.86
2023-05-10T12:32:51.249Z,17.89
2023-05-10T12:33:51.254Z,17.89
2023-05-10T12:34:51.207Z,17.86
2023-05-10T12:35:51.188Z,17.84
2023-05-10T12:36:51.208Z,17.84
2023-05-10T12:37:51.219Z,17.87
2023-05-10T12:38:51.180Z,17.82
2023-05-10T12:39:51.158Z,17.75
2023-05-10T12:40:51.201Z,17.74
2023-05-10T12:41:51.137Z,17.79
2023-05-10T12:42:51.161Z,17.89
2023-05-10T12:43:51.160Z,17.95
2023-05-10T12:44:51.117Z,17.96
2023-05-10T12:45:51.123Z,18.02
2023-05-10T12:46:51.073Z,18.05
2023-05-10T12:47:51.119Z,18.03
2023-05-10T12:48:57.534Z,17.96
2023-05-10T12:49:52.107Z,17.99
2023-05-10T12:50:51.036Z,18.15
2023-05-10T12:51:51.011Z,18.32
2023-05-10T12:52:51.012Z,18.50